KNUW/NUW METAR and TAF weather

Enter ICAO airport designator
Station Type Date Time Source
KNUW METAR 2022/06/28 08:56 UTC NOAA

KNUW 280856Z 21003KT 10SM SCT250 13/11 A2999 RMK SLP156 T01330106 53008


Station Type Date Time Source
KNUW Decoded METAR 2022/06/28 08:56 UTC NOAA

NAS WHIDBEY ISLAND, WA, United States (KNUW) 48-21N 122-39W 8M
Jun 28, 2022 - 04:56 AM EDT / 2022.06.28 0856 UTC
Wind: from the SSW (210 degrees) at 3 MPH (3 KT):0
Visibility: 10 mile(s):0
Sky conditions: partly cloudy
Temperature: 55.9 F (13.3 C)
Dew Point: 51.1 F (10.6 C)
Relative Humidity: 83%
Pressure (altimeter): 29.99 in. Hg (1015 hPa)
Pressure tendency: 0.02 inches (0.8 hPa) higher than three hours ago
ob: KNUW 280856Z 21003KT 10SM SCT250 13/11 A2999 RMK SLP156 T01330106 53008
cycle: 9

Station Type Date Time Source
KNUW TAF 2022/06/28 07:17 UTC NOAA

TAF KNUW 2807/2907 20009KT 9999 SCT150 BKN250 QNH2986INS
FM281500 19013G20KT 9999 VCSH SCT025 BKN100 OVC250 QNH2996INS
TEMPO 2819/2901 20016G24KT 6000 -SHRA BR BKN020 OVC080
BECMG 2902/2903 VRB06KT 9999 VCSH SCT030 BKN120 OVC230 620806 QNH3000INS
TEMPO 2903/2907 8000 -SHRA BR BKN025 OVC100 T12/2812Z T21/2823Z FS30170

Example: see airport list